Terminal Aerodrome Forecast
Issued by NWS

Home | Current Version | Previous Version | Text Only | Print | Product List | Glossary Off
Versions: 1 2 3 4 5 6 7 8 9 10 11 12 13 14

000
FTUS43 KMPX 010520
TAFRWF
TAF
KRWF 010520Z 0106/0206 30011KT P6SM VCSH OVC007
     FM011100 31009KT P6SM VCSH OVC006
     FM011900 32009KT P6SM OVC011
     FM012300 31005KT P6SM BKN015 OVC035=

USA.gov is the U.S. government's official web portal to all federal, state and local government web resources and services.